sensor_id;sensor_type;location;lat;lon;timestamp;pressure;altitude;pressure_sealevel;temperature;humidity
22255;BME280;11296;42.684;23.322;2022-09-06T00:01:36;95856.19;;;16.32;100.00
22255;BME280;11296;42.684;23.322;2022-09-06T00:04:02;95920.59;;;16.68;100.00
22255;BME280;11296;42.684;23.322;2022-09-06T00:06:28;95882.66;;;16.43;100.00
22255;BME280;11296;42.684;23.322;2022-09-06T00:08:53;95889.56;;;16.44;100.00
22255;BME280;11296;42.684;23.322;2022-09-06T00:11:19;95862.56;;;16.29;100.00
22255;BME280;11296;42.684;23.322;2022-09-06T00:13:45;95911.63;;;16.51;100.00
22255;BME280;11296;42.684;23.322;2022-09-06T00:16:18;95884.09;;;16.38;100.00
22255;BME280;11296;42.684;23.322;2022-09-06T00:18:45;95902.53;;;16.60;100.00
22255;BME280;11296;42.684;23.322;2022-09-06T00:23:40;95908.72;;;16.60;100.00
22255;BME280;11296;42.684;23.322;2022-09-06T00:26:05;95889.34;;;16.47;100.00
22255;BME280;11296;42.684;23.322;2022-09-06T00:28:31;95898.59;;;16.61;100.00
22255;BME280;11296;42.684;23.322;2022-09-06T00:30:57;95888.69;;;16.58;100.00
22255;BME280;11296;42.684;23.322;2022-09-06T00:33:23;95913.22;;;16.74;100.00
22255;BME280;11296;42.684;23.322;2022-09-06T00:35:51;95872.53;;;16.43;100.00
22255;BME280;11296;42.684;23.322;2022-09-06T00:38:22;95904.75;;;16.61;100.00
22255;BME280;11296;42.684;23.322;2022-09-06T00:40:48;95870.53;;;16.38;100.00
22255;BME280;11296;42.684;23.322;2022-09-06T00:43:13;95855.19;;;16.35;100.00
22255;BME280;11296;42.684;23.322;2022-09-06T00:45:39;95877.72;;;16.47;100.00
22255;BME280;11296;42.684;23.322;2022-09-06T00:48:05;95850.22;;;16.28;100.00
22255;BME280;11296;42.684;23.322;2022-09-06T00:50:31;95862.56;;;16.29;100.00
22255;BME280;11296;42.684;23.322;2022-09-06T00:52:57;95859.16;;;16.34;100.00
22255;BME280;11296;42.684;23.322;2022-09-06T00:55:22;95901.78;;;16.59;100.00
22255;BME280;11296;42.684;23.322;2022-09-06T00:57:50;95906.75;;;16.66;100.00
22255;BME280;11296;42.684;23.322;2022-09-06T01:00:18;95883.16;;;16.41;100.00
22255;BME280;11296;42.684;23.322;2022-09-06T01:02:47;95931.72;;;16.65;100.00
22255;BME280;11296;42.684;23.322;2022-09-06T01:05:13;95873.19;;;16.27;100.00
22255;BME280;11296;42.684;23.322;2022-09-06T01:08:07;95875.38;;;16.23;100.00
22255;BME280;11296;42.684;23.322;2022-09-06T01:13:51;95881.00;;;16.19;100.00
22255;BME280;11296;42.684;23.322;2022-09-06T01:16:32;95923.97;;;16.52;100.00
22255;BME280;11296;42.684;23.322;2022-09-06T01:30:05;95902.03;;;16.24;100.00
22255;BME280;11296;42.684;23.322;2022-09-06T01:38:00;95848.78;;;15.65;100.00
22255;BME280;11296;42.684;23.322;2022-09-06T01:40:26;95881.13;;;15.99;100.00
22255;BME280;11296;42.684;23.322;2022-09-06T01:42:53;95892.44;;;15.98;100.00
22255;BME280;11296;42.684;23.322;2022-09-06T01:45:36;95893.59;;;15.86;100.00
22255;BME280;11296;42.684;23.322;2022-09-06T01:48:22;95890.00;;;16.00;100.00
22255;BME280;11296;42.684;23.322;2022-09-06T02:02:02;95901.13;;;16.02;100.00
22255;BME280;11296;42.684;23.322;2022-09-06T02:04:42;95883.97;;;15.85;100.00
22255;BME280;11296;42.684;23.322;2022-09-06T02:07:25;95851.06;;;15.72;100.00
22255;BME280;11296;42.684;23.322;2022-09-06T02:09:55;95849.94;;;15.58;100.00
22255;BME280;11296;42.684;23.322;2022-09-06T02:12:30;95843.25;;;15.53;100.00
22255;BME280;11296;42.684;23.322;2022-09-06T02:15:03;95835.47;;;15.41;100.00
22255;BME280;11296;42.684;23.322;2022-09-06T02:17:36;95836.22;;;15.41;100.00
22255;BME280;11296;42.684;23.322;2022-09-06T02:20:08;95901.03;;;15.91;100.00
22255;BME280;11296;42.684;23.322;2022-09-06T02:22:40;95853.16;;;15.56;100.00
22255;BME280;11296;42.684;23.322;2022-09-06T02:25:10;95867.75;;;15.65;100.00
22255;BME280;11296;42.684;23.322;2022-09-06T02:27:38;95829.31;;;15.40;100.00
22255;BME280;11296;42.684;23.322;2022-09-06T02:30:07;95863.91;;;15.45;100.00
22255;BME280;11296;42.684;23.322;2022-09-06T02:32:43;95868.56;;;15.45;100.00
22255;BME280;11296;42.684;23.322;2022-09-06T02:35:14;95836.53;;;15.23;100.00
22255;BME280;11296;42.684;23.322;2022-09-06T02:37:41;95872.91;;;15.37;100.00
22255;BME280;11296;42.684;23.322;2022-09-06T02:40:08;95869.13;;;15.29;100.00
22255;BME280;11296;42.684;23.322;2022-09-06T02:42:34;95861.19;;;15.25;100.00
22255;BME280;11296;42.684;23.322;2022-09-06T02:45:00;95876.72;;;15.25;100.00
22255;BME280;11296;42.684;23.322;2022-09-06T02:47:26;95912.44;;;15.43;100.00
22255;BME280;11296;42.684;23.322;2022-09-06T02:49:52;95886.00;;;15.18;100.00
22255;BME280;11296;42.684;23.322;2022-09-06T02:52:17;95860.84;;;14.92;100.00
22255;BME280;11296;42.684;23.322;2022-09-06T02:54:46;95896.44;;;15.25;100.00
22255;BME280;11296;42.684;23.322;2022-09-06T02:57:11;95899.91;;;15.26;100.00
22255;BME280;11296;42.684;23.322;2022-09-06T02:59:37;95884.59;;;15.23;100.00
22255;BME280;11296;42.684;23.322;2022-09-06T03:02:03;95870.97;;;15.17;100.00
22255;BME280;11296;42.684;23.322;2022-09-06T03:04:28;95891.16;;;15.16;100.00
22255;BME280;11296;42.684;23.322;2022-09-06T03:06:54;95854.22;;;14.93;100.00
22255;BME280;11296;42.684;23.322;2022-09-06T03:09:20;95895.78;;;15.10;100.00
22255;BME280;11296;42.684;23.322;2022-09-06T03:11:46;95861.25;;;14.85;100.00
22255;BME280;11296;42.684;23.322;2022-09-06T03:14:12;95867.28;;;14.95;100.00
22255;BME280;11296;42.684;23.322;2022-09-06T03:16:37;95871.81;;;14.83;100.00
22255;BME280;11296;42.684;23.322;2022-09-06T03:19:03;95901.34;;;15.01;100.00
22255;BME280;11296;42.684;23.322;2022-09-06T03:21:29;95865.72;;;14.68;100.00
22255;BME280;11296;42.684;23.322;2022-09-06T03:23:54;95880.03;;;14.89;100.00
22255;BME280;11296;42.684;23.322;2022-09-06T03:26:20;95894.97;;;15.04;100.00
22255;BME280;11296;42.684;23.322;2022-09-06T03:28:46;95913.25;;;15.09;100.00
22255;BME280;11296;42.684;23.322;2022-09-06T03:31:12;95880.22;;;14.85;100.00
22255;BME280;11296;42.684;23.322;2022-09-06T03:33:37;95898.09;;;14.97;100.00
22255;BME280;11296;42.684;23.322;2022-09-06T03:36:03;95877.38;;;14.74;100.00
22255;BME280;11296;42.684;23.322;2022-09-06T03:38:29;95866.38;;;14.63;100.00
22255;BME280;11296;42.684;23.322;2022-09-06T03:40:55;95903.38;;;14.86;100.00
22255;BME280;11296;42.684;23.322;2022-09-06T03:43:22;95914.22;;;14.86;100.00
22255;BME280;11296;42.684;23.322;2022-09-06T03:45:50;95890.50;;;14.61;100.00
22255;BME280;11296;42.684;23.322;2022-09-06T03:48:17;95901.06;;;14.79;100.00
22255;BME280;11296;42.684;23.322;2022-09-06T03:50:47;95940.97;;;14.99;100.00
22255;BME280;11296;42.684;23.322;2022-09-06T03:53:14;95894.31;;;14.69;100.00
22255;BME280;11296;42.684;23.322;2022-09-06T03:55:44;95892.88;;;14.73;100.00
22255;BME280;11296;42.684;23.322;2022-09-06T03:58:10;95940.81;;;15.08;100.00
22255;BME280;11296;42.684;23.322;2022-09-06T04:00:35;95931.00;;;15.10;100.00
22255;BME280;11296;42.684;23.322;2022-09-06T04:03:01;95901.34;;;14.81;100.00
22255;BME280;11296;42.684;23.322;2022-09-06T04:05:27;95899.13;;;14.79;100.00
22255;BME280;11296;42.684;23.322;2022-09-06T04:07:53;95906.50;;;14.79;100.00
22255;BME280;11296;42.684;23.322;2022-09-06T04:10:18;95945.72;;;15.04;100.00
22255;BME280;11296;42.684;23.322;2022-09-06T04:12:44;95913.72;;;14.67;100.00
22255;BME280;11296;42.684;23.322;2022-09-06T04:15:10;95885.50;;;14.54;100.00
22255;BME280;11296;42.684;23.322;2022-09-06T04:17:35;95915.69;;;14.87;100.00
22255;BME280;11296;42.684;23.322;2022-09-06T04:20:02;95874.19;;;14.55;100.00
22255;BME280;11296;42.684;23.322;2022-09-06T04:22:28;95924.78;;;14.84;100.00
22255;BME280;11296;42.684;23.322;2022-09-06T04:24:54;95889.84;;;14.86;100.00
22255;BME280;11296;42.684;23.322;2022-09-06T04:27:20;95865.72;;;14.68;100.00
22255;BME280;11296;42.684;23.322;2022-09-06T04:29:46;95912.56;;;15.14;100.00
22255;BME280;11296;42.684;23.322;2022-09-06T04:32:11;95948.59;;;15.40;100.00
22255;BME280;11296;42.684;23.322;2022-09-06T04:34:37;95920.72;;;15.40;100.00
22255;BME280;11296;42.684;23.322;2022-09-06T04:37:03;95923.19;;;15.38;100.00
22255;BME280;11296;42.684;23.322;2022-09-06T04:39:29;95922.59;;;15.28;100.00
22255;BME280;11296;42.684;23.322;2022-09-06T04:41:54;95900.84;;;15.23;100.00
22255;BME280;11296;42.684;23.322;2022-09-06T04:44:23;95898.63;;;15.21;100.00
22255;BME280;11296;42.684;23.322;2022-09-06T04:46:48;95873.84;;;15.08;100.00
22255;BME280;11296;42.684;23.322;2022-09-06T04:49:14;95895.84;;;15.16;100.00
22255;BME280;11296;42.684;23.322;2022-09-06T04:51:40;95891.69;;;15.20;100.00
22255;BME280;11296;42.684;23.322;2022-09-06T04:54:06;95899.78;;;15.40;100.00
22255;BME280;11296;42.684;23.322;2022-09-06T04:56:31;95893.06;;;15.30;100.00
22255;BME280;11296;42.684;23.322;2022-09-06T04:58:57;95919.81;;;15.69;100.00
22255;BME280;11296;42.684;23.322;2022-09-06T05:01:23;95876.63;;;15.39;100.00
22255;BME280;11296;42.684;23.322;2022-09-06T05:03:50;95899.63;;;15.70;100.00
22255;BME280;11296;42.684;23.322;2022-09-06T05:06:21;95893.94;;;15.68;100.00
22255;BME280;11296;42.684;23.322;2022-09-06T05:08:48;95873.72;;;15.69;100.00
22255;BME280;11296;42.684;23.322;2022-09-06T05:11:14;95871.97;;;15.66;100.00
22255;BME280;11296;42.684;23.322;2022-09-06T05:13:41;95877.59;;;15.88;100.00
22255;BME280;11296;42.684;23.322;2022-09-06T05:16:08;95876.16;;;15.98;100.00
22255;BME280;11296;42.684;23.322;2022-09-06T05:18:34;95911.69;;;16.31;100.00
22255;BME280;11296;42.684;23.322;2022-09-06T05:21:00;95893.72;;;16.39;100.00
22255;BME280;11296;42.684;23.322;2022-09-06T05:23:26;95885.28;;;16.31;100.00
22255;BME280;11296;42.684;23.322;2022-09-06T05:25:53;95854.53;;;16.09;100.00
22255;BME280;11296;42.684;23.322;2022-09-06T05:28:19;95860.88;;;16.31;100.00
22255;BME280;11296;42.684;23.322;2022-09-06T05:30:45;95887.44;;;16.53;100.00
22255;BME280;11296;42.684;23.322;2022-09-06T05:33:12;95909.66;;;16.57;100.00
22255;BME280;11296;42.684;23.322;2022-09-06T05:35:38;95858.31;;;16.17;100.00
22255;BME280;11296;42.684;23.322;2022-09-06T05:38:04;95928.78;;;16.74;100.00
22255;BME280;11296;42.684;23.322;2022-09-06T05:40:30;95885.38;;;16.48;100.00
22255;BME280;11296;42.684;23.322;2022-09-06T05:42:57;95855.88;;;16.24;100.00
22255;BME280;11296;42.684;23.322;2022-09-06T05:45:22;95883.91;;;16.47;100.00
22255;BME280;11296;42.684;23.322;2022-09-06T05:47:48;95928.31;;;16.75;100.00
22255;BME280;11296;42.684;23.322;2022-09-06T05:50:14;95875.69;;;16.36;100.00
22255;BME280;11296;42.684;23.322;2022-09-06T05:52:39;95873.84;;;16.53;100.00
22255;BME280;11296;42.684;23.322;2022-09-06T05:55:08;95875.13;;;16.63;100.00
22255;BME280;11296;42.684;23.322;2022-09-06T05:57:34;95860.31;;;16.59;100.00
22255;BME280;11296;42.684;23.322;2022-09-06T06:00:00;95888.56;;;16.83;100.00
22255;BME280;11296;42.684;23.322;2022-09-06T06:02:26;95873.75;;;16.84;100.00
22255;BME280;11296;42.684;23.322;2022-09-06T06:04:56;95861.44;;;16.94;100.00
22255;BME280;11296;42.684;23.322;2022-09-06T06:07:22;95870.88;;;17.10;100.00
22255;BME280;11296;42.684;23.322;2022-09-06T06:09:48;95838.47;;;16.95;100.00
22255;BME280;11296;42.684;23.322;2022-09-06T06:12:14;95859.03;;;17.19;100.00
22255;BME280;11296;42.684;23.322;2022-09-06T06:14:42;95870.97;;;17.38;100.00
22255;BME280;11296;42.684;23.322;2022-09-06T06:20:02;95865.34;;;17.63;100.00
22255;BME280;11296;42.684;23.322;2022-09-06T06:22:41;95856.91;;;17.56;100.00
22255;BME280;11296;42.684;23.322;2022-09-06T06:25:17;95866.09;;;17.64;100.00
22255;BME280;11296;42.684;23.322;2022-09-06T06:27:47;95871.06;;;17.82;100.00
22255;BME280;11296;42.684;23.322;2022-09-06T06:30:27;95853.94;;;17.76;100.00
22255;BME280;11296;42.684;23.322;2022-09-06T06:32:53;95880.94;;;17.96;100.00
22255;BME280;11296;42.684;23.322;2022-09-06T06:35:18;95867.31;;;17.96;100.00
22255;BME280;11296;42.684;23.322;2022-09-06T06:37:44;95892.78;;;18.15;100.00
22255;BME280;11296;42.684;23.322;2022-09-06T06:40:13;95894.03;;;18.25;100.00
22255;BME280;11296;42.684;23.322;2022-09-06T06:43:09;95844.06;;;17.95;100.00
22255;BME280;11296;42.684;23.322;2022-09-06T06:49:53;95863.13;;;18.17;100.00
22255;BME280;11296;42.684;23.322;2022-09-06T06:52:32;95889.31;;;18.42;100.00
22255;BME280;11296;42.684;23.322;2022-09-06T06:55:09;95864.59;;;18.18;100.00
22255;BME280;11296;42.684;23.322;2022-09-06T06:57:38;95869.50;;;18.36;100.00
22255;BME280;11296;42.684;23.322;2022-09-06T07:00:34;95832.66;;;18.02;100.00
22255;BME280;11296;42.684;23.322;2022-09-06T07:03:11;95830.44;;;18.17;100.00
22255;BME280;11296;42.684;23.322;2022-09-06T07:05:41;95846.22;;;18.35;100.00
22255;BME280;11296;42.684;23.322;2022-09-06T07:08:18;95860.06;;;18.60;100.00
22255;BME280;11296;42.684;23.322;2022-09-06T07:11:06;95894.16;;;18.94;100.00
22255;BME280;11296;42.684;23.322;2022-09-06T07:13:32;95849.56;;;18.86;100.00
22255;BME280;11296;42.684;23.322;2022-09-06T07:16:07;95866.63;;;18.97;100.00
22255;BME280;11296;42.684;23.322;2022-09-06T07:26:19;95840.28;;;18.54;100.00
22255;BME280;11296;42.684;23.322;2022-09-06T07:28:45;95839.00;;;18.60;100.00
22255;BME280;11296;42.684;23.322;2022-09-06T07:31:12;95877.28;;;19.01;100.00
22255;BME280;11296;42.684;23.322;2022-09-06T07:33:38;95869.88;;;18.90;100.00
22255;BME280;11296;42.684;23.322;2022-09-06T07:36:10;95885.59;;;19.25;100.00
22255;BME280;11296;42.684;23.322;2022-09-06T07:38:46;95835.22;;;18.85;100.00
22255;BME280;11296;42.684;23.322;2022-09-06T07:41:23;95889.53;;;19.30;100.00
22255;BME280;11296;42.684;23.322;2022-09-06T07:44:07;95886.53;;;19.33;100.00
22255;BME280;11296;42.684;23.322;2022-09-06T07:46:36;95875.59;;;19.44;100.00
22255;BME280;11296;42.684;23.322;2022-09-06T07:49:25;95857.94;;;19.51;100.00
22255;BME280;11296;42.684;23.322;2022-09-06T07:51:58;95861.03;;;19.71;100.00
22255;BME280;11296;42.684;23.322;2022-09-06T07:54:24;95865.47;;;19.74;100.00
22255;BME280;11296;42.684;23.322;2022-09-06T07:56:49;95879.34;;;19.76;100.00
22255;BME280;11296;42.684;23.322;2022-09-06T07:59:15;95868.34;;;19.87;100.00
22255;BME280;11296;42.684;23.322;2022-09-06T08:01:41;95855.00;;;19.78;100.00
22255;BME280;11296;42.684;23.322;2022-09-06T08:04:11;95813.97;;;19.60;100.00
22255;BME280;11296;42.684;23.322;2022-09-06T08:06:43;95837.97;;;19.96;100.00
22255;BME280;11296;42.684;23.322;2022-09-06T08:09:09;95839.19;;;20.01;100.00
22255;BME280;11296;42.684;23.322;2022-09-06T08:11:37;95827.50;;;20.01;100.00
22255;BME280;11296;42.684;23.322;2022-09-06T08:14:05;95857.41;;;20.47;100.00
22255;BME280;11296;42.684;23.322;2022-09-06T08:16:32;95854.78;;;20.60;100.00
22255;BME280;11296;42.684;23.322;2022-09-06T08:19:02;95881.09;;;20.63;100.00
22255;BME280;11296;42.684;23.322;2022-09-06T08:21:31;95816.88;;;20.27;100.00
22255;BME280;11296;42.684;23.322;2022-09-06T08:24:02;95853.25;;;20.64;100.00
22255;BME280;11296;42.684;23.322;2022-09-06T08:26:30;95819.63;;;20.51;100.00
22255;BME280;11296;42.684;23.322;2022-09-06T08:29:01;95831.16;;;20.62;100.00
22255;BME280;11296;42.684;23.322;2022-09-06T08:31:29;95847.91;;;20.96;100.00
22255;BME280;11296;42.684;23.322;2022-09-06T08:33:56;95825.59;;;21.11;100.00
22255;BME280;11296;42.684;23.322;2022-09-06T08:36:23;95810.25;;;21.08;100.00
22255;BME280;11296;42.684;23.322;2022-09-06T08:38:51;95830.34;;;21.29;100.00
22255;BME280;11296;42.684;23.322;2022-09-06T08:41:50;95800.91;;;21.16;100.00
22255;BME280;11296;42.684;23.322;2022-09-06T08:44:46;95830.22;;;21.21;100.00
22255;BME280;11296;42.684;23.322;2022-09-06T08:47:18;95810.38;;;21.34;100.00
22255;BME280;11296;42.684;23.322;2022-09-06T08:49:55;95809.84;;;21.35;100.00
22255;BME280;11296;42.684;23.322;2022-09-06T08:52:40;95791.75;;;21.32;100.00
22255;BME280;11296;42.684;23.322;2022-09-06T09:01:31;95774.81;;;21.79;100.00
22255;BME280;11296;42.684;23.322;2022-09-06T09:04:01;95813.16;;;22.10;100.00
22255;BME280;11296;42.684;23.322;2022-09-06T09:06:30;95785.97;;;22.12;100.00
22255;BME280;11296;42.684;23.322;2022-09-06T09:09:07;95818.69;;;22.63;100.00
22255;BME280;11296;42.684;23.322;2022-09-06T09:11:34;95800.44;;;22.52;100.00
22255;BME280;11296;42.684;23.322;2022-09-06T09:16:33;95806.03;;;22.73;100.00
22255;BME280;11296;42.684;23.322;2022-09-06T09:19:03;95772.47;;;22.54;100.00
22255;BME280;11296;42.684;23.322;2022-09-06T09:21:35;95741.19;;;22.62;100.00
22255;BME280;11296;42.684;23.322;2022-09-06T09:24:07;95759.38;;;22.86;100.00
22255;BME280;11296;42.684;23.322;2022-09-06T09:29:27;95767.19;;;22.95;100.00
22255;BME280;11296;42.684;23.322;2022-09-06T09:31:53;95743.03;;;22.80;100.00
22255;BME280;11296;42.684;23.322;2022-09-06T09:34:37;95734.63;;;22.65;98.81
22255;BME280;11296;42.684;23.322;2022-09-06T09:39:43;95758.41;;;22.97;96.75
22255;BME280;11296;42.684;23.322;2022-09-06T09:42:08;95777.56;;;23.10;97.67
22255;BME280;11296;42.684;23.322;2022-09-06T09:44:41;95741.09;;;23.02;100.00
22255;BME280;11296;42.684;23.322;2022-09-06T09:47:22;95778.66;;;23.40;100.00
22255;BME280;11296;42.684;23.322;2022-09-06T09:49:48;95728.72;;;23.29;98.21
22255;BME280;11296;42.684;23.322;2022-09-06T09:52:14;95774.19;;;23.71;100.00
22255;BME280;11296;42.684;23.322;2022-09-06T09:54:43;95784.72;;;23.80;97.11
22255;BME280;11296;42.684;23.322;2022-09-06T09:57:17;95767.22;;;23.70;94.34
22255;BME280;11296;42.684;23.322;2022-09-06T09:59:45;95739.56;;;23.68;98.12
22255;BME280;11296;42.684;23.322;2022-09-06T10:02:51;95719.00;;;23.62;96.46
22255;BME280;11296;42.684;23.322;2022-09-06T10:05:19;95710.88;;;23.77;93.06
22255;BME280;11296;42.684;23.322;2022-09-06T10:07:55;95736.03;;;23.88;91.52
22255;BME280;11296;42.684;23.322;2022-09-06T10:10:24;95700.44;;;23.54;87.15
22255;BME280;11296;42.684;23.322;2022-09-06T10:15:40;95738.59;;;24.07;97.73
22255;BME280;11296;42.684;23.322;2022-09-06T10:18:37;95753.06;;;24.36;92.24
22255;BME280;11296;42.684;23.322;2022-09-06T10:21:13;95738.34;;;24.25;85.31
22255;BME280;11296;42.684;23.322;2022-09-06T10:26:52;95740.19;;;24.30;84.73
22255;BME280;11296;42.684;23.322;2022-09-06T10:32:38;95736.69;;;24.58;83.51
22255;BME280;11296;42.684;23.322;2022-09-06T10:35:15;95711.19;;;24.58;75.26
22255;BME280;11296;42.684;23.322;2022-09-06T10:40:59;95728.91;;;26.19;65.04
22255;BME280;11296;42.684;23.322;2022-09-06T10:43:43;95696.69;;;29.27;47.79
22255;BME280;11296;42.684;23.322;2022-09-06T10:46:16;95670.00;;;31.30;41.26
22255;BME280;11296;42.684;23.322;2022-09-06T10:48:53;95685.00;;;33.16;36.72
22255;BME280;11296;42.684;23.322;2022-09-06T10:51:45;95686.97;;;34.66;32.41
22255;BME280;11296;42.684;23.322;2022-09-06T10:54:40;95684.72;;;37.05;29.48
22255;BME280;11296;42.684;23.322;2022-09-06T10:57:26;95689.66;;;37.36;27.76
22255;BME280;11296;42.684;23.322;2022-09-06T11:00:06;95699.59;;;38.01;27.85
22255;BME280;11296;42.684;23.322;2022-09-06T11:03:12;95684.47;;;38.08;25.62
22255;BME280;11296;42.684;23.322;2022-09-06T11:14:49;95700.28;;;35.82;26.35
22255;BME280;11296;42.684;23.322;2022-09-06T11:20:49;95671.63;;;36.67;25.99
22255;BME280;11296;42.684;23.322;2022-09-06T11:23:51;95708.50;;;37.49;25.15
22255;BME280;11296;42.684;23.322;2022-09-06T11:26:31;95683.84;;;38.61;21.36
22255;BME280;11296;42.684;23.322;2022-09-06T11:29:15;95655.50;;;38.21;22.15
22255;BME280;11296;42.684;23.322;2022-09-06T11:35:27;95707.66;;;36.02;24.07
22255;BME280;11296;42.684;23.322;2022-09-06T11:41:51;95664.19;;;33.86;26.10
22255;BME280;11296;42.684;23.322;2022-09-06T11:47:43;95674.78;;;35.37;25.86
22255;BME280;11296;42.684;23.322;2022-09-06T11:52:55;95673.81;;;35.57;24.89
22255;BME280;11296;42.684;23.322;2022-09-06T11:55:38;95640.84;;;36.53;23.13
22255;BME280;11296;42.684;23.322;2022-09-06T12:06:23;95669.66;;;35.86;24.31
22255;BME280;11296;42.684;23.322;2022-09-06T12:08:54;95636.75;;;35.18;24.01
22255;BME280;11296;42.684;23.322;2022-09-06T12:14:47;95622.75;;;30.52;29.83
22255;BME280;11296;42.684;23.322;2022-09-06T12:17:27;95602.91;;;31.45;30.13
22255;BME280;11296;42.684;23.322;2022-09-06T12:26:02;95611.00;;;28.41;38.78
22255;BME280;11296;42.684;23.322;2022-09-06T12:28:32;95640.97;;;28.35;41.29
22255;BME280;11296;42.684;23.322;2022-09-06T12:31:00;95608.97;;;30.83;37.23
22255;BME280;11296;42.684;23.322;2022-09-06T12:33:30;95621.13;;;31.27;35.02
22255;BME280;11296;42.684;23.322;2022-09-06T12:36:18;95622.28;;;31.24;34.56
22255;BME280;11296;42.684;23.322;2022-09-06T12:39:06;95593.69;;;32.16;33.96
22255;BME280;11296;42.684;23.322;2022-09-06T12:41:38;95617.41;;;33.98;30.56
22255;BME280;11296;42.684;23.322;2022-09-06T12:44:20;95630.56;;;33.38;30.77
22255;BME280;11296;42.684;23.322;2022-09-06T12:46:49;95609.28;;;31.58;33.12
22255;BME280;11296;42.684;23.322;2022-09-06T12:49:23;95601.59;;;30.47;35.12
22255;BME280;11296;42.684;23.322;2022-09-06T12:51:49;95595.72;;;31.52;34.35
22255;BME280;11296;42.684;23.322;2022-09-06T12:54:21;95569.16;;;32.03;32.94
22255;BME280;11296;42.684;23.322;2022-09-06T12:56:52;95602.59;;;32.36;32.31
22255;BME280;11296;42.684;23.322;2022-09-06T12:59:36;95583.47;;;33.90;31.67
22255;BME280;11296;42.684;23.322;2022-09-06T13:02:07;95590.22;;;34.86;30.08
22255;BME280;11296;42.684;23.322;2022-09-06T13:04:48;95596.94;;;34.30;30.61
22255;BME280;11296;42.684;23.322;2022-09-06T13:07:19;95597.22;;;32.49;32.88
22255;BME280;11296;42.684;23.322;2022-09-06T13:09:49;95598.44;;;30.91;35.36
22255;BME280;11296;42.684;23.322;2022-09-06T13:12:38;95616.81;;;29.52;37.61
22255;BME280;11296;42.684;23.322;2022-09-06T13:17:44;95583.47;;;28.00;40.63
22255;BME280;11296;42.684;23.322;2022-09-06T13:20:13;95609.25;;;29.62;38.46
22255;BME280;11296;42.684;23.322;2022-09-06T13:22:45;95630.66;;;29.52;38.58
22255;BME280;11296;42.684;23.322;2022-09-06T13:27:46;95600.59;;;29.03;39.69
22255;BME280;11296;42.684;23.322;2022-09-06T13:32:56;95593.91;;;27.00;43.28
22255;BME280;11296;42.684;23.322;2022-09-06T13:35:23;95603.84;;;26.24;46.75
22255;BME280;11296;42.684;23.322;2022-09-06T13:37:49;95584.72;;;26.66;45.81
22255;BME280;11296;42.684;23.322;2022-09-06T13:40:43;95626.94;;;28.68;41.77
22255;BME280;11296;42.684;23.322;2022-09-06T13:43:12;95600.69;;;29.77;39.14
22255;BME280;11296;42.684;23.322;2022-09-06T13:45:39;95578.91;;;29.74;38.81
22255;BME280;11296;42.684;23.322;2022-09-06T13:48:05;95572.63;;;29.73;38.30
22255;BME280;11296;42.684;23.322;2022-09-06T13:50:33;95594.47;;;29.41;38.89
22255;BME280;11296;42.684;23.322;2022-09-06T13:52:59;95630.50;;;29.50;39.37
22255;BME280;11296;42.684;23.322;2022-09-06T13:55:29;95566.97;;;29.90;37.92
22255;BME280;11296;42.684;23.322;2022-09-06T13:57:56;95586.88;;;30.85;36.79
22255;BME280;11296;42.684;23.322;2022-09-06T14:00:22;95599.38;;;32.18;35.48
22255;BME280;11296;42.684;23.322;2022-09-06T14:02:48;95595.91;;;33.64;33.45
22255;BME280;11296;42.684;23.322;2022-09-06T14:05:15;95592.44;;;32.84;33.41
22255;BME280;11296;42.684;23.322;2022-09-06T14:07:43;95576.44;;;32.73;33.34
22255;BME280;11296;42.684;23.322;2022-09-06T14:10:09;95572.66;;;32.25;34.06
22255;BME280;11296;42.684;23.322;2022-09-06T14:12:36;95600.50;;;33.25;34.37
22255;BME280;11296;42.684;23.322;2022-09-06T14:15:04;95576.47;;;33.43;33.77
22255;BME280;11296;42.684;23.322;2022-09-06T14:17:30;95559.25;;;32.44;33.61
22255;BME280;11296;42.684;23.322;2022-09-06T14:20:02;95589.44;;;29.75;38.14
22255;BME280;11296;42.684;23.322;2022-09-06T14:22:28;95604.97;;;29.06;40.29
22255;BME280;11296;42.684;23.322;2022-09-06T14:24:54;95568.88;;;27.82;41.82
22255;BME280;11296;42.684;23.322;2022-09-06T14:27:21;95555.78;;;27.24;42.86
22255;BME280;11296;42.684;23.322;2022-09-06T14:29:47;95575.75;;;26.90;45.18
22255;BME280;11296;42.684;23.322;2022-09-06T14:32:13;95590.50;;;25.98;49.54
22255;BME280;11296;42.684;23.322;2022-09-06T14:34:39;95591.06;;;26.04;52.28
22255;BME280;11296;42.684;23.322;2022-09-06T14:37:05;95552.06;;;26.00;53.12
22255;BME280;11296;42.684;23.322;2022-09-06T14:39:33;95576.88;;;26.15;55.02
22255;BME280;11296;42.684;23.322;2022-09-06T14:42:01;95550.25;;;26.10;53.86
22255;BME280;11296;42.684;23.322;2022-09-06T14:44:27;95574.75;;;25.75;55.37
22255;BME280;11296;42.684;23.322;2022-09-06T14:46:53;95562.69;;;25.41;57.53
22255;BME280;11296;42.684;23.322;2022-09-06T14:49:19;95558.81;;;25.36;58.47
22255;BME280;11296;42.684;23.322;2022-09-06T14:51:46;95565.59;;;25.65;58.77
22255;BME280;11296;42.684;23.322;2022-09-06T14:54:13;95575.00;;;25.47;60.19
22255;BME280;11296;42.684;23.322;2022-09-06T14:56:42;95528.56;;;25.06;61.05
22255;BME280;11296;42.684;23.322;2022-09-06T14:59:11;95567.47;;;25.25;61.96
22255;BME280;11296;42.684;23.322;2022-09-06T15:01:38;95541.59;;;25.06;63.87
22255;BME280;11296;42.684;23.322;2022-09-06T15:04:29;95538.13;;;25.20;64.56
22255;BME280;11296;42.684;23.322;2022-09-06T15:09:23;95557.56;;;25.37;66.63